Time;durP1;ratioP1;P1;durP2;ratioP2;P2;SDS_P1;SDS_P2;PMS_P1;PMS_P2;Temp;Humidity;BMP_temperature;BMP_pressure;BME280_temperature;BME280_humidity;BME280_pressure;Samples;Min_cycle;Max_cycle;Signal;HPM_P1;HPM_P2
2022/12/30 00:01:29;;;;;;;8.68;1.77;;;;;;;7.71;80.64;101033.09;5062577;28;20024;-45
2022/12/30 00:03:54;;;;;;;11.70;2.35;;;;;;;7.75;80.71;101045.19;5057785;28;20025;-47
2022/12/30 00:06:22;;;;;;;12.38;2.35;;;;;;;7.75;80.85;101046.88;5063582;28;20032;-47
2022/12/30 00:08:53;;;;;;;9.75;1.88;;;;;;;7.74;80.58;101051.09;5059585;28;20538;-45
2022/12/30 00:11:30;;;;;;;8.77;2.22;;;;;;;7.78;80.88;101049.56;5066886;28;20066;-45
2022/12/30 00:34:06;;;;;;;9.85;1.95;;;;;;;7.71;80.63;101073.16;5057351;28;20050;-46
2022/12/30 00:36:32;;;;;;;8.20;2.05;;;;;;;7.67;80.64;101073.81;5055761;28;20025;-51
2022/12/30 00:38:58;;;;;;;10.27;2.00;;;;;;;7.62;80.71;101067.63;5063851;28;20400;-49
2022/12/30 00:44:07;;;;;;;11.30;2.75;;;;;;;7.59;80.46;101064.97;5066801;28;20116;-49
2022/12/30 00:46:33;;;;;;;7.38;2.40;;;;;;;7.59;80.46;101064.97;5076101;28;20115;-50
2022/12/30 00:57:10;;;;;;;16.20;2.38;;;;;;;7.49;80.68;101058.56;5058727;28;20051;-50
2022/12/30 00:59:36;;;;;;;9.93;2.05;;;;;;;7.52;80.69;101059.56;5062924;28;20497;-47
2022/12/30 01:02:02;;;;;;;13.05;2.15;;;;;;;7.52;80.80;101068.91;5066578;28;20040;-50
2022/12/30 01:04:28;;;;;;;11.90;2.58;;;;;;;7.45;81.11;101067.75;5059543;28;20044;-50
2022/12/30 01:06:54;;;;;;;10.27;2.25;;;;;;;7.43;80.98;101069.41;5066471;28;20032;-48
2022/12/30 01:09:19;;;;;;;12.63;2.30;;;;;;;7.44;81.26;101072.81;5063971;28;20382;-47
2022/12/30 01:11:44;;;;;;;15.63;2.65;;;;;;;7.40;81.18;101076.94;5072503;28;20081;-47
2022/12/30 01:14:10;;;;;;;13.90;2.58;;;;;;;7.42;81.47;101080.44;5063297;28;20115;-47
2022/12/30 01:16:35;;;;;;;14.43;2.72;;;;;;;7.39;81.75;101079.41;5064631;28;20029;-43
2022/12/30 01:19:00;;;;;;;11.82;2.35;;;;;;;7.37;81.60;101078.47;5071304;28;20047;-50
2022/12/30 01:21:26;;;;;;;8.88;1.92;;;;;;;7.39;81.93;101076.84;5080473;28;20042;-49
2022/12/30 01:23:51;;;;;;;13.25;2.45;;;;;;;7.38;81.88;101077.66;5080550;28;20068;-49
2022/12/30 01:26:16;;;;;;;11.73;2.30;;;;;;;7.36;81.72;101084.41;5079363;28;20062;-48
2022/12/30 01:28:42;;;;;;;11.13;2.47;;;;;;;7.36;81.78;101079.28;5080558;28;20511;-49
2022/12/30 01:31:10;;;;;;;10.88;2.60;;;;;;;7.36;81.97;101087.84;5068071;28;20032;-48
2022/12/30 01:33:36;;;;;;;13.85;2.92;;;;;;;7.32;82.02;101083.38;5074167;28;20031;-49
2022/12/30 01:36:03;;;;;;;13.60;2.45;;;;;;;7.31;82.05;101089.31;5071747;28;20036;-47
2022/12/30 01:38:30;;;;;;;14.20;3.03;;;;;;;7.29;82.25;101090.94;5074379;28;20025;-51
2022/12/30 01:40:55;;;;;;;18.95;2.67;;;;;;;7.26;82.33;101098.47;5076896;28;20389;-49
2022/12/30 01:43:39;;;;;;;18.45;2.72;;;;;;;7.35;82.36;101104.00;5069416;28;20059;-47
2022/12/30 01:46:06;;;;;;;18.30;2.72;;;;;;;7.31;82.47;101107.22;5059821;28;20086;-46
2022/12/30 01:48:32;;;;;;;15.80;2.92;;;;;;;7.28;82.42;101107.09;5066326;28;20540;-49
2022/12/30 01:51:02;;;;;;;17.98;2.70;;;;;;;7.27;82.81;101113.00;5066532;28;20036;-48
2022/12/30 01:53:31;;;;;;;19.17;3.03;;;;;;;7.29;82.62;101106.28;5074540;28;20039;-49
2022/12/30 01:55:59;;;;;;;14.93;2.53;;;;;;;7.27;82.45;101115.56;5062303;28;20031;-49
2022/12/30 01:58:33;;;;;;;15.68;2.80;;;;;;;7.30;82.34;101125.06;5063886;28;20123;-47
2022/12/30 02:00:58;;;;;;;14.05;2.78;;;;;;;7.31;82.50;101124.25;5062922;28;20496;-47
2022/12/30 02:03:29;;;;;;;11.15;2.20;;;;;;;7.28;82.29;101119.88;5060145;28;20056;-47
2022/12/30 02:05:55;;;;;;;12.23;2.72;;;;;;;7.29;82.16;101113.97;5060177;28;20036;-49
2022/12/30 02:08:21;;;;;;;17.33;2.60;;;;;;;7.28;82.51;101109.66;5062261;28;20024;-49
2022/12/30 02:10:52;;;;;;;14.82;3.03;;;;;;;7.28;82.51;101104.53;5068784;28;20101;-49
2022/12/30 02:13:19;;;;;;;14.18;2.55;;;;;;;7.23;82.35;101094.09;5060515;28;20036;-50
2022/12/30 02:16:26;;;;;;;12.20;2.45;;;;;;;7.30;82.54;101104.59;5068393;28;20037;-48
2022/12/30 02:18:57;;;;;;;15.30;2.60;;;;;;;7.23;82.36;101095.78;5048036;28;20041;-48
2022/12/30 02:22:17;;;;;;;13.18;2.13;;;;;;;7.26;82.47;101098.47;5063743;28;20074;-47
2022/12/30 02:25:09;;;;;;;15.10;2.40;;;;;;;7.24;82.62;101092.41;5028980;28;20550;-51
2022/12/30 02:27:53;;;;;;;14.07;2.55;;;;;;;7.22;82.54;101086.38;5059165;28;20408;-48
2022/12/30 02:30:23;;;;;;;14.40;2.53;;;;;;;7.16;82.61;101092.06;5066918;28;20016;-48
2022/12/30 02:32:58;;;;;;;13.77;2.40;;;;;;;7.14;82.74;101093.66;5057451;28;20393;-50
2022/12/30 02:35:31;;;;;;;11.60;2.65;;;;;;;7.14;82.73;101086.00;5059255;28;20101;-50
2022/12/30 02:38:09;;;;;;;12.25;2.60;;;;;;;7.15;82.65;101081.75;5064574;28;20029;-50
2022/12/30 02:46:13;;;;;;;14.20;2.72;;;;;;;7.07;82.89;101071.19;5067264;28;20120;-48
2022/12/30 02:48:43;;;;;;;12.95;3.22;;;;;;;7.09;82.64;101066.13;5064217;28;20044;-48
2022/12/30 02:53:53;;;;;;;16.23;2.88;;;;;;;7.06;82.25;101064.31;5066606;28;20329;-48
2022/12/30 02:56:19;;;;;;;13.60;2.30;;;;;;;7.03;82.77;101051.38;5082582;28;20488;-46
2022/12/30 03:05:35;;;;;;;13.27;2.95;;;;;;;7.08;82.97;101043.94;5081950;28;20040;-48
2022/12/30 03:08:10;;;;;;;11.88;2.20;;;;;;;7.09;82.82;101053.34;5082986;28;20023;-48
2022/12/30 03:13:44;;;;;;;9.85;1.80;;;;;;;7.05;82.62;101047.25;5062697;28;20447;-46
2022/12/30 03:16:23;;;;;;;11.68;2.60;;;;;;;7.04;83.07;101050.59;5062883;28;20499;-49
2022/12/30 03:18:50;;;;;;;11.48;2.50;;;;;;;7.02;82.58;101059.00;5066430;28;20029;-49
2022/12/30 03:21:18;;;;;;;13.35;2.35;;;;;;;6.95;83.04;101053.59;5060316;28;20116;-48
2022/12/30 03:29:25;;;;;;;13.70;2.40;;;;;;;6.92;82.63;101053.47;5061795;28;20039;-47
2022/12/30 03:31:52;;;;;;;14.20;2.40;;;;;;;6.89;82.62;101045.66;5063716;28;20078;-48
2022/12/30 03:34:18;;;;;;;12.63;2.28;;;;;;;6.89;82.63;101044.78;5069144;28;20504;-47
2022/12/30 03:36:47;;;;;;;10.05;2.17;;;;;;;6.83;82.89;101052.16;5064428;28;20028;-48
2022/12/30 03:39:15;;;;;;;16.60;2.55;;;;;;;6.80;82.92;101045.25;5064591;28;20194;-48
2022/12/30 03:41:45;;;;;;;13.55;2.55;;;;;;;6.82;82.71;101050.44;5059805;28;20017;-49
2022/12/30 03:44:11;;;;;;;17.27;2.55;;;;;;;6.80;82.94;101046.94;5066008;28;20476;-45
2022/12/30 03:46:40;;;;;;;13.13;2.33;;;;;;;6.78;82.91;101048.53;5065159;28;20059;-48
2022/12/30 03:49:05;;;;;;;14.68;2.42;;;;;;;6.76;83.15;101053.56;5064554;28;20104;-49
2022/12/30 03:51:31;;;;;;;13.20;2.55;;;;;;;6.76;83.14;101053.56;5062076;28;20115;-48
2022/12/30 03:53:56;;;;;;;13.23;2.40;;;;;;;6.72;83.17;101056.78;5065266;28;20636;-47
2022/12/30 03:56:21;;;;;;;16.05;2.63;;;;;;;6.71;83.20;101050.78;5066947;28;20463;-50
2022/12/30 03:58:47;;;;;;;13.57;2.35;;;;;;;6.69;83.08;101047.31;5064989;28;20082;-45
2022/12/30 04:01:12;;;;;;;12.35;2.47;;;;;;;6.68;83.16;101052.34;5053417;28;20033;-48
2022/12/30 04:03:37;;;;;;;17.85;2.75;;;;;;;6.68;82.78;101060.00;5064748;28;20107;-48
2022/12/30 04:06:03;;;;;;;14.02;2.50;;;;;;;6.67;83.02;101055.69;5062310;28;20294;-46
2022/12/30 04:08:28;;;;;;;12.00;2.03;;;;;;;6.59;83.15;101046.78;5066296;28;20056;-46
2022/12/30 04:10:53;;;;;;;15.18;2.33;;;;;;;6.62;83.27;101050.38;5064652;28;20031;-47
2022/12/30 04:13:19;;;;;;;13.48;3.00;;;;;;;6.56;83.31;101057.75;5065784;28;20025;-48
2022/12/30 04:15:49;;;;;;;16.98;3.08;;;;;;;6.59;83.42;101062.13;5055931;28;20017;-49
2022/12/30 04:18:15;;;;;;;15.73;3.35;;;;;;;6.51;83.49;101066.00;5064757;28;20032;-49
2022/12/30 04:20:40;;;;;;;16.90;2.80;;;;;;;6.54;83.39;101071.25;5063528;28;20032;-47
2022/12/30 04:23:05;;;;;;;10.50;2.30;;;;;;;6.55;83.18;101076.44;5063860;28;20028;-51
2022/12/30 04:25:31;;;;;;;14.15;2.80;;;;;;;6.54;83.18;101069.56;5066377;28;20153;-47
2022/12/30 04:27:56;;;;;;;14.48;2.40;;;;;;;6.50;83.43;101069.38;5060230;28;20042;-50
2022/12/30 04:30:21;;;;;;;17.65;2.88;;;;;;;6.45;83.45;101064.91;5071805;28;20033;-45
2022/12/30 04:32:47;;;;;;;18.42;3.33;;;;;;;6.43;83.93;101063.97;5062040;28;20025;-48
2022/12/30 04:35:12;;;;;;;18.50;2.60;;;;;;;6.43;84.06;101053.75;5063795;28;20036;-47
2022/12/30 04:37:38;;;;;;;10.60;2.63;;;;;;;6.46;84.02;101060.66;5060393;28;20032;-48
2022/12/30 04:40:04;;;;;;;16.08;3.00;;;;;;;6.40;84.11;101055.28;5062996;28;20088;-49
2022/12/30 04:42:29;;;;;;;17.75;3.47;;;;;;;6.37;84.26;101053.47;5064404;28;20028;-48
2022/12/30 04:44:54;;;;;;;14.60;2.70;;;;;;;6.37;84.33;101061.13;5062600;28;20028;-49
2022/12/30 04:47:20;;;;;;;15.88;2.80;;;;;;;6.42;84.44;101059.63;5058328;28;20060;-48
2022/12/30 04:49:45;;;;;;;15.27;2.65;;;;;;;6.39;84.38;101056.94;5064562;28;20051;-46
2022/12/30 04:52:10;;;;;;;11.70;2.65;;;;;;;6.39;84.21;101056.94;5070671;28;20043;-48
2022/12/30 04:54:36;;;;;;;16.17;3.10;;;;;;;6.38;84.32;101044.13;5069462;28;20031;-47
2022/12/30 04:57:01;;;;;;;15.18;2.70;;;;;;;6.37;84.22;101055.09;5070946;28;20090;-49
2022/12/30 04:59:26;;;;;;;12.80;2.78;;;;;;;6.34;84.56;101045.63;5065295;28;20167;-47
2022/12/30 05:01:52;;;;;;;18.08;3.42;;;;;;;6.30;84.50;101045.41;5071474;28;20099;-50
2022/12/30 05:04:17;;;;;;;17.98;2.80;;;;;;;6.27;84.83;101041.03;5062101;28;20386;-49
2022/12/30 05:06:42;;;;;;;12.25;2.55;;;;;;;6.26;84.98;101039.28;5075682;28;20039;-48
2022/12/30 05:09:08;;;;;;;14.50;2.78;;;;;;;6.23;85.29;101041.69;5066269;28;20033;-47
2022/12/30 05:11:33;;;;;;;18.23;2.63;;;;;;;6.25;85.12;101042.66;5076985;28;20033;-48
2022/12/30 05:13:58;;;;;;;14.10;2.58;;;;;;;6.25;85.14;101040.09;5065680;28;20028;-47
2022/12/30 05:16:24;;;;;;;17.63;2.90;;;;;;;6.24;85.36;101051.09;5060647;28;20493;-46
2022/12/30 05:18:49;;;;;;;11.38;2.42;;;;;;;6.24;85.29;101045.97;5058082;28;20036;-47
2022/12/30 05:21:14;;;;;;;14.88;2.55;;;;;;;6.21;85.54;101038.19;5062938;28;20120;-45
2022/12/30 05:26:24;;;;;;;13.45;2.65;;;;;;;6.21;85.33;101048.41;5057955;28;20599;-48
2022/12/30 05:28:49;;;;;;;14.35;2.38;;;;;;;6.23;85.62;101043.38;5062161;28;20064;-47
2022/12/30 05:31:16;;;;;;;15.00;3.30;;;;;;;6.21;86.23;101035.63;5061473;28;20123;-48
2022/12/30 05:33:42;;;;;;;13.15;2.97;;;;;;;6.22;86.11;101039.94;5061616;28;20027;-48
2022/12/30 05:36:09;;;;;;;13.45;3.03;;;;;;;6.20;86.45;101022.81;5069473;28;20040;-50
2022/12/30 05:38:34;;;;;;;11.95;2.35;;;;;;;6.20;86.12;101026.22;5063409;28;20174;-48
2022/12/30 05:41:00;;;;;;;13.00;2.78;;;;;;;6.20;86.46;101033.03;5063356;28;20405;-47
2022/12/30 05:43:25;;;;;;;18.40;2.92;;;;;;;6.18;86.78;101035.47;5059079;28;20035;-49
2022/12/30 05:45:51;;;;;;;12.82;2.95;;;;;;;6.20;86.79;101044.09;5058322;28;20085;-49
2022/12/30 05:48:16;;;;;;;17.27;2.85;;;;;;;6.17;87.22;101038.84;5067622;28;20046;-49
2022/12/30 05:50:42;;;;;;;16.35;2.63;;;;;;;6.22;86.94;101050.16;5063294;28;20059;-47
2022/12/30 05:53:08;;;;;;;17.08;2.92;;;;;;;6.18;87.35;101032.91;5066521;28;20081;-49
2022/12/30 05:55:33;;;;;;;12.73;2.80;;;;;;;6.21;87.58;101030.53;5065151;28;20044;-46
2022/12/30 05:57:58;;;;;;;12.70;2.35;;;;;;;6.20;87.51;101033.91;5062781;28;20515;-49
2022/12/30 06:00:24;;;;;;;12.32;2.35;;;;;;;6.15;87.53;101031.09;5063543;28;20037;-47
2022/12/30 06:02:49;;;;;;;12.85;2.90;;;;;;;6.15;88.23;101025.13;5057982;28;20078;-51
2022/12/30 06:05:14;;;;;;;16.23;2.83;;;;;;;6.14;87.98;101024.25;5057942;28;21545;-47
2022/12/30 06:07:40;;;;;;;15.23;2.78;;;;;;;6.17;88.09;101026.94;5061287;28;20340;-47
2022/12/30 06:10:07;;;;;;;13.70;2.40;;;;;;;6.16;88.02;101027.75;5058601;28;20134;-50
2022/12/30 06:12:32;;;;;;;9.77;2.55;;;;;;;6.16;88.02;101022.66;5068118;28;20028;-46
2022/12/30 06:14:58;;;;;;;16.20;2.80;;;;;;;6.16;88.23;101006.44;5064869;28;20578;-48
2022/12/30 06:17:23;;;;;;;13.90;2.65;;;;;;;6.15;88.76;101008.13;5057949;28;20646;-48
2022/12/30 06:19:48;;;;;;;15.07;2.58;;;;;;;6.16;88.79;101006.44;5064664;28;20850;-46
2022/12/30 06:22:14;;;;;;;16.83;3.10;;;;;;;6.14;88.75;101002.97;5092878;27;20127;-49
2022/12/30 06:24:39;;;;;;;15.75;2.55;;;;;;;6.10;88.67;101007.03;5062866;28;20083;-49
2022/12/30 06:27:04;;;;;;;16.95;2.67;;;;;;;6.12;88.89;101007.09;5059968;28;20032;-48
2022/12/30 06:29:30;;;;;;;13.23;2.65;;;;;;;6.14;88.72;101002.97;5065598;28;20400;-48
2022/12/30 06:31:55;;;;;;;12.63;2.20;;;;;;;6.12;88.89;100995.19;5065790;28;20063;-46
2022/12/30 06:34:20;;;;;;;11.93;2.50;;;;;;;6.13;89.04;101002.09;5071150;28;20063;-49
2022/12/30 06:36:46;;;;;;;14.88;2.65;;;;;;;6.12;88.98;101005.41;5063047;28;20029;-50
2022/12/30 06:39:11;;;;;;;12.60;2.50;;;;;;;6.14;88.66;101005.50;5057535;28;20035;-47
2022/12/30 06:41:36;;;;;;;10.10;2.47;;;;;;;6.13;89.00;101004.63;5066498;28;20138;-50
2022/12/30 06:44:02;;;;;;;16.65;2.55;;;;;;;6.14;89.11;100992.75;5061423;28;20032;-45
2022/12/30 06:46:27;;;;;;;12.60;2.53;;;;;;;6.15;89.01;100981.72;5064797;28;20033;-47
2022/12/30 06:48:53;;;;;;;14.23;2.45;;;;;;;6.15;88.99;100974.94;5062702;28;20094;-46
2022/12/30 06:51:18;;;;;;;16.15;2.65;;;;;;;6.18;88.78;100979.31;5070835;28;20032;-46
2022/12/30 06:53:43;;;;;;;15.55;2.85;;;;;;;6.14;89.19;100965.53;5074011;28;20048;-45
2022/12/30 06:56:09;;;;;;;10.68;2.28;;;;;;;6.15;89.23;100966.41;5077799;28;20028;-45
2022/12/30 06:58:34;;;;;;;11.10;2.58;;;;;;;6.13;89.26;100961.25;5073769;28;20111;-51
2022/12/30 07:00:59;;;;;;;11.23;2.28;;;;;;;6.14;89.31;100952.78;5070734;28;20040;-48
2022/12/30 07:03:25;;;;;;;7.57;2.03;;;;;;;6.13;89.38;100945.03;5072342;28;20049;-46
2022/12/30 07:05:50;;;;;;;15.80;2.92;;;;;;;6.12;89.60;100940.72;5068792;28;20036;-49
2022/12/30 07:08:16;;;;;;;15.20;2.90;;;;;;;6.14;89.46;100937.44;5075508;28;20075;-47
2022/12/30 07:10:41;;;;;;;10.55;2.35;;;;;;;6.14;90.02;100931.47;5080649;28;20060;-47
2022/12/30 07:13:06;;;;;;;10.82;2.30;;;;;;;6.13;90.11;100928.03;5074700;28;20407;-44
2022/12/30 07:15:32;;;;;;;13.05;2.45;;;;;;;6.16;89.88;100922.19;5068353;28;20028;-48
2022/12/30 07:17:57;;;;;;;11.75;2.33;;;;;;;6.13;90.31;100915.28;5066878;28;20082;-47
2022/12/30 07:20:23;;;;;;;10.88;2.30;;;;;;;6.14;90.11;100919.59;5060294;28;20094;-48
2022/12/30 07:22:48;;;;;;;14.50;2.40;;;;;;;6.15;90.29;100923.88;5058831;28;20117;-45
2022/12/30 07:25:14;;;;;;;17.17;3.00;;;;;;;6.14;90.31;100917.03;5061064;28;20604;-51
2022/12/30 07:27:39;;;;;;;10.40;2.25;;;;;;;6.15;90.23;100921.31;5057449;28;20047;-46
2022/12/30 07:30:05;;;;;;;9.60;2.38;;;;;;;6.16;90.23;100919.63;5064563;28;20397;-47
2022/12/30 07:32:31;;;;;;;13.07;2.85;;;;;;;6.14;90.53;100927.25;5061872;28;20039;-49
2022/12/30 07:34:56;;;;;;;13.88;2.50;;;;;;;6.15;90.25;100913.66;5069639;28;20032;-47
2022/12/30 07:37:21;;;;;;;13.27;2.22;;;;;;;6.16;90.44;100910.31;5055150;28;20036;-46
2022/12/30 07:39:47;;;;;;;9.60;2.63;;;;;;;6.17;90.50;100906.94;5064674;28;20119;-46
2022/12/30 07:42:12;;;;;;;10.35;2.15;;;;;;;6.20;90.38;100900.25;5064340;28;20032;-47
2022/12/30 07:44:38;;;;;;;12.10;2.50;;;;;;;6.20;90.10;100898.56;5067258;28;20032;-47
2022/12/30 07:47:04;;;;;;;13.75;2.42;;;;;;;6.18;90.39;100889.94;5065651;28;20083;-49
2022/12/30 07:49:30;;;;;;;8.93;2.45;;;;;;;6.21;90.24;100879.00;5063664;28;20114;-48
2022/12/30 07:51:55;;;;;;;9.70;2.70;;;;;;;6.23;90.21;100875.72;5060581;28;20426;-46
2022/12/30 07:54:21;;;;;;;9.02;2.15;;;;;;;6.25;90.22;100866.47;5060602;28;20032;-48
2022/12/30 07:56:46;;;;;;;13.05;2.55;;;;;;;6.24;90.19;100863.81;5065165;28;20509;-49
2022/12/30 07:59:14;;;;;;;9.82;2.17;;;;;;;6.27;90.58;100862.28;5061324;28;20036;-46
2022/12/30 08:01:39;;;;;;;10.65;2.47;;;;;;;6.26;90.22;100854.56;5059015;28;20042;-49
2022/12/30 08:04:05;;;;;;;9.40;2.28;;;;;;;6.29;90.70;100847.03;5060025;28;20037;-48
2022/12/30 08:06:31;;;;;;;10.75;2.15;;;;;;;6.30;90.48;100838.56;5061292;28;20039;-50
2022/12/30 08:08:56;;;;;;;8.98;2.50;;;;;;;6.30;90.56;100846.22;5061107;28;20032;-49
2022/12/30 08:11:22;;;;;;;11.82;2.35;;;;;;;6.31;90.79;100846.31;5065705;28;20084;-45
2022/12/30 08:13:47;;;;;;;10.48;2.10;;;;;;;6.28;90.66;100830.84;5068745;28;20029;-49
2022/12/30 08:16:14;;;;;;;11.73;2.10;;;;;;;6.31;90.97;100837.75;5060742;28;20036;-46
2022/12/30 08:18:40;;;;;;;9.60;2.30;;;;;;;6.33;91.14;100836.16;5066652;28;20039;-49
2022/12/30 08:21:10;;;;;;;9.13;2.50;;;;;;;6.34;91.17;100835.34;5057297;28;20474;-44
2022/12/30 08:23:35;;;;;;;8.18;1.98;;;;;;;6.37;91.42;100831.25;5064968;28;20113;-46
2022/12/30 08:26:10;;;;;;;9.05;2.08;;;;;;;6.39;91.38;100827.09;5056675;28;20057;-47
2022/12/30 08:28:36;;;;;;;11.43;2.45;;;;;;;6.38;91.44;100820.22;5064513;28;20052;-47
2022/12/30 08:31:16;;;;;;;12.75;2.42;;;;;;;6.44;91.56;100822.19;5067431;28;20059;-47
2022/12/30 08:33:43;;;;;;;12.57;2.38;;;;;;;6.44;91.48;100811.97;5062458;28;20037;-46
2022/12/30 08:36:12;;;;;;;8.73;2.00;;;;;;;6.45;91.77;100813.72;5065235;28;20064;-48
2022/12/30 08:38:41;;;;;;;15.38;2.47;;;;;;;6.50;91.80;100799.47;5063741;28;20032;-48
2022/12/30 08:41:20;;;;;;;11.48;2.08;;;;;;;6.55;91.97;100797.06;5065231;28;20481;-48
2022/12/30 08:43:46;;;;;;;7.80;2.17;;;;;;;6.52;92.16;100797.84;5057685;28;20040;-47
2022/12/30 08:46:11;;;;;;;8.35;1.92;;;;;;;6.55;92.06;100794.53;5065108;28;20159;-49
2022/12/30 08:48:37;;;;;;;10.27;2.30;;;;;;;6.60;92.06;100793.91;5066642;28;20038;-46
2022/12/30 08:51:03;;;;;;;8.60;1.70;;;;;;;6.60;92.12;100785.38;5064130;28;20053;-47
2022/12/30 08:53:29;;;;;;;10.77;2.45;;;;;;;6.63;92.41;100782.97;5062012;28;20032;-47
2022/12/30 08:56:07;;;;;;;9.38;1.90;;;;;;;6.66;92.55;100760.97;5054068;28;20032;-47
2022/12/30 08:58:34;;;;;;;5.47;1.65;;;;;;;6.68;92.43;100761.91;5066510;28;20024;-47
2022/12/30 09:01:07;;;;;;;11.18;2.03;;;;;;;6.74;92.31;100763.00;5064760;28;20115;-48
2022/12/30 09:03:32;;;;;;;8.50;2.05;;;;;;;6.74;92.31;100760.44;5063457;28;20032;-46
2022/12/30 09:05:58;;;;;;;9.18;1.70;;;;;;;6.78;92.18;100760.59;5071078;28;20028;-48
2022/12/30 09:08:23;;;;;;;7.93;1.60;;;;;;;6.78;92.37;100760.59;5064549;28;20500;-47
2022/12/30 09:10:59;;;;;;;8.52;1.90;;;;;;;6.84;92.00;100760.84;5065629;28;20654;-48
2022/12/30 09:13:25;;;;;;;8.43;2.05;;;;;;;6.85;91.79;100747.25;5063084;28;20028;-43
2022/12/30 09:15:50;;;;;;;6.65;1.65;;;;;;;6.89;91.84;100736.34;5067759;28;20038;-46
2022/12/30 09:18:16;;;;;;;6.90;1.80;;;;;;;6.90;91.87;100740.66;5062511;28;20539;-45
2022/12/30 09:20:41;;;;;;;9.32;1.67;;;;;;;6.91;91.80;100737.28;5063481;28;20041;-46
2022/12/30 09:23:06;;;;;;;9.45;1.77;;;;;;;6.97;91.49;100742.66;5067036;28;21006;-45
2022/12/30 09:25:32;;;;;;;6.85;1.52;;;;;;;6.98;91.53;100739.31;5064176;28;20431;-47
2022/12/30 09:27:58;;;;;;;8.43;1.70;;;;;;;7.01;91.42;100735.13;5067389;28;20465;-47
2022/12/30 09:30:23;;;;;;;6.78;2.00;;;;;;;7.07;91.13;100738.78;5068590;28;20032;-45
2022/12/30 09:32:48;;;;;;;8.13;1.52;;;;;;;7.09;91.09;100734.59;5066653;28;20033;-48
2022/12/30 09:35:14;;;;;;;4.93;1.33;;;;;;;7.13;90.87;100733.06;5066005;28;20045;-48
2022/12/30 09:37:39;;;;;;;7.50;1.38;;;;;;;7.16;90.37;100723.84;5061986;28;20037;-46
2022/12/30 09:40:05;;;;;;;8.48;1.73;;;;;;;7.19;90.34;100723.06;5064570;28;20067;-47
2022/12/30 09:43:18;;;;;;;6.18;1.40;;;;;;;7.23;90.48;100712.16;5066568;28;20481;-46
2022/12/30 09:45:41;;;;;;;6.57;1.40;;;;;;;7.28;90.31;100720.88;5063791;28;20082;-47
2022/12/30 09:48:15;;;;;;;6.45;1.48;;;;;;;7.29;90.43;100711.53;5066641;28;20502;-43
2022/12/30 09:50:51;;;;;;;7.93;1.40;;;;;;;7.32;90.01;100703.94;5066137;28;20100;-47
2022/12/30 09:53:25;;;;;;;9.82;1.52;;;;;;;7.34;90.20;100698.09;5065268;28;20386;-45
2022/12/30 09:55:55;;;;;;;6.57;1.38;;;;;;;7.37;90.19;100700.75;5063327;28;20047;-47
2022/12/30 09:58:29;;;;;;;6.32;1.35;;;;;;;7.40;90.11;100693.22;5068943;28;20101;-46
2022/12/30 10:00:59;;;;;;;5.30;1.30;;;;;;;7.44;89.53;100684.81;5066064;28;20032;-47
2022/12/30 10:03:25;;;;;;;4.43;1.08;;;;;;;7.45;89.32;100671.22;5066222;28;20032;-46
2022/12/30 10:06:02;;;;;;;5.20;1.30;;;;;;;7.51;89.69;100660.34;5066222;28;20075;-48
2022/12/30 10:08:46;;;;;;;9.82;1.60;;;;;;;7.52;89.30;100672.31;5063057;28;20117;-48
2022/12/30 10:11:41;;;;;;;10.13;1.30;;;;;;;7.55;89.00;100662.19;5065348;28;20093;-44
2022/12/30 10:14:15;;;;;;;6.82;1.42;;;;;;;7.59;89.29;100647.84;5057039;28;20072;-47
2022/12/30 10:16:59;;;;;;;6.45;1.40;;;;;;;7.61;89.42;100648.75;5079362;28;20115;-47
2022/12/30 10:19:36;;;;;;;7.13;1.30;;;;;;;7.64;89.22;100643.75;5075308;28;20079;-44
2022/12/30 10:22:13;;;;;;;4.38;1.23;;;;;;;7.65;89.07;100622.47;5082643;28;20544;-46
2022/12/30 10:25:13;;;;;;;6.28;1.40;;;;;;;7.69;88.70;100598.72;5072272;28;20064;-45
2022/12/30 10:27:48;;;;;;;10.95;1.58;;;;;;;7.70;88.84;100605.56;5081517;28;20032;-47
2022/12/30 10:30:32;;;;;;;7.38;1.83;;;;;;;7.68;88.59;100592.72;5084373;28;20031;-49
2022/12/30 10:33:06;;;;;;;5.90;1.30;;;;;;;7.71;88.65;100587.75;5077779;28;20028;-48
2022/12/30 10:35:33;;;;;;;6.82;1.20;;;;;;;7.72;88.70;100583.47;5080955;28;20032;-47
2022/12/30 10:38:22;;;;;;;7.13;1.35;;;;;;;7.76;88.78;100570.81;5088729;28;20077;-46
2022/12/30 10:41:00;;;;;;;7.32;1.45;;;;;;;7.77;88.55;100564.91;5076589;28;20024;-46
2022/12/30 10:44:10;;;;;;;6.03;1.13;;;;;;;7.80;88.60;100566.69;5062785;28;20036;-48
2022/12/30 10:46:53;;;;;;;8.20;1.48;;;;;;;7.82;88.56;100544.56;5066544;28;20669;-48
2022/12/30 10:49:55;;;;;;;6.72;1.27;;;;;;;7.83;88.55;100533.53;5078340;28;20084;-47
2022/12/30 10:52:21;;;;;;;8.63;1.30;;;;;;;7.84;88.28;100530.16;5081868;28;20424;-46
2022/12/30 10:54:48;;;;;;;9.05;1.48;;;;;;;7.87;88.20;100522.56;5081629;28;20043;-49
2022/12/30 10:57:21;;;;;;;8.52;1.63;;;;;;;7.89;88.50;100520.06;5069277;28;20078;-47
2022/12/30 10:59:48;;;;;;;7.68;1.58;;;;;;;7.90;88.29;100496.22;5065879;28;20024;-48
2022/12/30 11:02:21;;;;;;;4.60;1.13;;;;;;;7.92;88.12;100489.44;5071108;28;20028;-48
2022/12/30 11:04:47;;;;;;;6.78;1.20;;;;;;;7.94;88.16;100475.00;5068071;28;20495;-46
2022/12/30 11:07:14;;;;;;;6.43;1.20;;;;;;;7.96;88.01;100481.91;5070083;28;20028;-48
2022/12/30 11:09:41;;;;;;;7.85;1.38;;;;;;;7.95;87.89;100461.41;5066177;28;20028;-48
2022/12/30 11:15:21;;;;;;;5.75;1.20;;;;;;;8.02;87.89;100442.84;5068091;28;20574;-46
2022/12/30 11:17:54;;;;;;;4.82;1.55;;;;;;;8.04;88.09;100434.38;5067517;28;20036;-47
2022/12/30 11:20:29;;;;;;;9.00;1.67;;;;;;;8.04;87.83;100431.81;5069129;28;20017;-46
2022/12/30 11:22:57;;;;;;;9.80;1.60;;;;;;;8.07;87.80;100425.94;5066190;28;20021;-46
2022/12/30 11:25:42;;;;;;;9.23;1.40;;;;;;;8.10;87.92;100422.59;5067680;28;20649;-46
2022/12/30 11:28:15;;;;;;;6.10;1.23;;;;;;;8.11;87.73;100403.84;5061817;28;20033;-46
2022/12/30 11:30:59;;;;;;;7.40;1.50;;;;;;;8.12;87.73;100392.75;5064149;28;20024;-48
2022/12/30 11:33:55;;;;;;;8.73;1.50;;;;;;;8.15;87.52;100386.06;5069736;28;20032;-44
2022/12/30 11:36:26;;;;;;;8.07;1.40;;;;;;;8.17;87.28;100370.72;5060133;28;20516;-44
2022/12/30 11:38:53;;;;;;;7.07;1.50;;;;;;;8.19;87.45;100366.50;5067014;28;20483;-44
2022/12/30 11:41:23;;;;;;;9.40;1.42;;;;;;;8.18;87.44;100346.84;5067259;28;20112;-42
2022/12/30 11:43:49;;;;;;;;;;;;;;;8.26;87.51;100345.41;5063501;28;20401;-43
2022/12/30 11:46:18;;;;;;;8.90;1.65;;;;;;;8.19;87.27;100326.44;5064766;28;19960;-43
2022/12/30 11:48:46;;;;;;;8.60;1.45;;;;;;;8.25;87.22;100338.50;5070164;28;20496;-43
2022/12/30 11:51:21;;;;;;;6.57;1.55;;;;;;;8.26;87.07;100330.91;5066642;28;20031;-48
2022/12/30 11:53:49;;;;;;;8.25;1.52;;;;;;;8.29;86.63;100323.28;5068737;28;20028;-43
2022/12/30 11:56:23;;;;;;;8.90;1.48;;;;;;;8.33;86.59;100322.56;5070128;28;20129;-46
2022/12/30 11:58:49;;;;;;;8.30;1.45;;;;;;;8.34;86.00;100308.91;5065028;28;20079;-44
2022/12/30 12:01:15;;;;;;;7.63;1.13;;;;;;;8.37;86.24;100297.03;5066585;28;20060;-46
2022/12/30 12:04:26;;;;;;;7.70;1.20;;;;;;;8.40;86.34;100280.06;5066751;28;20078;-42
2022/12/30 12:06:52;;;;;;;10.85;1.55;;;;;;;8.40;86.19;100259.56;5067042;28;20032;-46
2022/12/30 12:09:22;;;;;;;9.05;1.85;;;;;;;8.41;86.01;100248.50;5065072;28;20024;-43
2022/12/30 12:11:48;;;;;;;6.15;1.27;;;;;;;8.44;86.06;100237.47;5067446;28;20494;-45
2022/12/30 12:14:25;;;;;;;9.32;1.40;;;;;;;8.47;86.23;100250.38;5060988;28;20039;-44
2022/12/30 12:17:23;;;;;;;9.88;1.83;;;;;;;8.48;86.13;100241.84;5064972;28;20016;-44
2022/12/30 12:19:55;;;;;;;7.07;1.27;;;;;;;8.49;85.72;100233.31;5063707;28;20029;-43
2022/12/30 12:22:32;;;;;;;10.88;1.77;;;;;;;8.52;86.18;100239.41;5065343;28;20123;-43
2022/12/30 12:25:04;;;;;;;8.63;1.70;;;;;;;8.54;86.00;100236.88;5068372;28;20377;-46
2022/12/30 12:27:30;;;;;;;6.25;1.40;;;;;;;8.55;86.35;100234.38;5067773;28;20382;-44
2022/12/30 12:29:56;;;;;;;6.72;1.38;;;;;;;8.57;86.81;100214.78;5068396;28;20103;-42
2022/12/30 12:32:42;;;;;;;6.82;1.35;;;;;;;8.60;87.08;100214.84;5074070;28;20115;-45
2022/12/30 12:35:21;;;;;;;6.28;1.48;;;;;;;8.59;88.09;100202.84;5069755;28;20506;-44
2022/12/30 12:37:52;;;;;;;9.43;1.48;;;;;;;8.60;88.66;100191.78;5068527;28;20028;-45
2022/12/30 12:40:30;;;;;;;6.10;1.40;;;;;;;8.62;89.12;100183.28;5067657;28;20408;-42